createdAt,value
2023-05-22T00:00:49.472Z,25.42
2023-05-22T00:01:49.678Z,25.40
2023-05-22T00:02:49.770Z,25.42
2023-05-22T00:03:49.639Z,25.42
2023-05-22T00:04:49.726Z,25.43
2023-05-22T00:05:49.766Z,25.42
2023-05-22T00:06:49.884Z,25.42
2023-05-22T00:07:49.879Z,25.44
2023-05-22T00:08:49.921Z,25.42
2023-05-22T00:09:49.991Z,25.43
2023-05-22T00:10:50.039Z,25.43
2023-05-22T00:11:50.109Z,25.43
2023-05-22T00:12:50.157Z,25.42
2023-05-22T00:13:50.232Z,25.42
2023-05-22T00:14:50.294Z,25.42
2023-05-22T00:15:50.330Z,25.42
2023-05-22T00:16:50.485Z,25.42
2023-05-22T00:17:50.465Z,25.42
2023-05-22T00:18:50.525Z,25.42
2023-05-22T00:19:50.549Z,25.40
2023-05-22T00:20:50.645Z,25.42
2023-05-22T00:21:50.684Z,25.42
2023-05-22T00:22:50.752Z,25.42
2023-05-22T00:23:50.794Z,25.43
2023-05-22T00:24:50.851Z,25.40
2023-05-22T00:25:50.902Z,25.43
2023-05-22T00:26:50.953Z,25.40
2023-05-22T00:27:51.010Z,25.43
2023-05-22T00:28:51.062Z,25.42
2023-05-22T00:29:51.217Z,25.43
2023-05-22T00:30:51.188Z,25.42
2023-05-22T00:31:51.260Z,25.43
2023-05-22T00:32:51.339Z,25.43
2023-05-22T00:33:51.360Z,25.42
2023-05-22T00:34:51.455Z,25.40
2023-05-22T00:35:51.435Z,25.44
2023-05-22T00:36:51.508Z,25.43
2023-05-22T00:37:51.579Z,25.42
2023-05-22T00:38:51.623Z,25.39
2023-05-22T00:39:51.690Z,25.43
2023-05-22T00:40:51.746Z,25.42
2023-05-22T00:41:51.811Z,25.40
2023-05-22T00:42:51.861Z,25.43
2023-05-22T00:43:51.918Z,25.42
2023-05-22T00:44:51.997Z,25.42
2023-05-22T00:45:52.034Z,25.42
2023-05-22T00:46:52.188Z,25.40
2023-05-22T00:47:52.225Z,25.42
2023-05-22T00:48:52.203Z,25.40
2023-05-22T00:49:52.257Z,25.42
2023-05-22T00:50:52.322Z,25.42
2023-05-22T00:51:52.377Z,25.42
2023-05-22T00:52:52.444Z,25.42
2023-05-22T00:53:52.500Z,25.42
2023-05-22T00:54:52.546Z,25.42
2023-05-22T00:55:52.588Z,25.40
2023-05-22T00:56:52.679Z,25.40
2023-05-22T00:57:52.727Z,25.43
2023-05-22T00:58:52.822Z,25.43
2023-05-22T00:59:52.828Z,25.40
2023-05-22T01:00:52.897Z,25.40
2023-05-22T01:01:52.994Z,25.42
2023-05-22T01:02:53.180Z,25.43
2023-05-22T01:03:53.237Z,25.43
2023-05-22T01:04:53.112Z,25.43
2023-05-22T01:05:53.178Z,25.39
2023-05-22T01:06:53.279Z,25.40
2023-05-22T01:07:53.340Z,25.39
2023-05-22T01:08:53.369Z,25.42
2023-05-22T01:09:53.432Z,25.40
2023-05-22T01:10:53.494Z,25.43
2023-05-22T01:11:53.550Z,25.40
2023-05-22T01:12:53.580Z,25.40
2023-05-22T01:13:53.644Z,25.40
2023-05-22T01:14:54.687Z,25.42
2023-05-22T01:15:53.791Z,25.40
2023-05-22T01:16:53.809Z,25.40
2023-05-22T01:17:53.924Z,25.40
2023-05-22T01:18:54.003Z,25.39
2023-05-22T01:19:54.093Z,25.40
2023-05-22T01:20:54.069Z,25.40
2023-05-22T01:21:54.108Z,25.42
2023-05-22T01:22:54.162Z,25.39
2023-05-22T01:23:54.261Z,25.42
2023-05-22T01:24:54.290Z,25.42
2023-05-22T01:25:54.346Z,25.40
2023-05-22T01:26:54.403Z,25.42
2023-05-22T01:27:54.466Z,25.40
2023-05-22T01:28:54.541Z,25.40
2023-05-22T01:29:54.574Z,25.42
2023-05-22T01:30:54.631Z,25.37
2023-05-22T01:31:54.719Z,25.37
2023-05-22T01:32:54.847Z,25.40
2023-05-22T01:33:55.124Z,25.39
2023-05-22T01:34:54.895Z,25.37
2023-05-22T01:35:54.923Z,25.39
2023-05-22T01:36:54.977Z,25.40
2023-05-22T01:37:55.041Z,25.39
2023-05-22T01:38:55.078Z,25.36
2023-05-22T01:39:55.124Z,25.39
2023-05-22T01:40:55.192Z,25.39
2023-05-22T01:41:55.268Z,25.37
2023-05-22T01:42:55.290Z,25.39
2023-05-22T01:43:55.383Z,25.37
2023-05-22T01:44:55.398Z,25.37
2023-05-22T01:45:55.475Z,25.36
2023-05-22T01:46:55.490Z,25.37
2023-05-22T01:47:55.583Z,25.36
2023-05-22T01:48:55.591Z,25.36
2023-05-22T01:49:55.661Z,25.37
2023-05-22T01:50:55.721Z,25.36
2023-05-22T01:51:55.740Z,25.36
2023-05-22T01:52:55.812Z,25.33
2023-05-22T01:53:55.863Z,25.33
2023-05-22T01:54:55.896Z,25.36
2023-05-22T01:55:55.999Z,25.37
2023-05-22T01:56:55.993Z,25.32
2023-05-22T01:57:56.055Z,25.34
2023-05-22T01:58:56.104Z,25.34
2023-05-22T01:59:56.153Z,25.36
2023-05-22T02:00:56.276Z,25.33
2023-05-22T02:01:56.285Z,25.36
2023-05-22T02:02:56.428Z,25.34
2023-05-22T02:03:56.384Z,25.36
2023-05-22T02:04:56.440Z,25.37
2023-05-22T02:05:56.525Z,25.34
2023-05-22T02:06:56.558Z,25.34
2023-05-22T02:07:56.631Z,25.39
2023-05-22T02:08:56.697Z,25.40
2023-05-22T02:09:56.742Z,25.37
2023-05-22T02:10:56.824Z,25.34
2023-05-22T02:11:56.870Z,25.37
2023-05-22T02:12:56.942Z,25.34
2023-05-22T02:13:56.964Z,25.34
2023-05-22T02:14:57.037Z,25.36
2023-05-22T02:15:57.093Z,25.36
2023-05-22T02:16:57.128Z,25.34
2023-05-22T02:17:57.241Z,25.37
2023-05-22T02:18:57.302Z,25.36
2023-05-22T02:19:57.324Z,25.36
2023-05-22T02:20:57.382Z,25.34
2023-05-22T02:21:57.453Z,25.39
2023-05-22T02:22:57.540Z,25.39
2023-05-22T02:23:57.557Z,25.37
2023-05-22T02:24:57.630Z,25.37
2023-05-22T02:25:57.690Z,25.39
2023-05-22T02:26:57.716Z,25.36
2023-05-22T02:27:57.785Z,25.37
2023-05-22T02:28:57.834Z,25.36
2023-05-22T02:29:57.861Z,25.36
2023-05-22T02:30:57.942Z,25.33
2023-05-22T02:31:57.959Z,25.34
2023-05-22T02:32:58.046Z,25.34
2023-05-22T02:33:58.067Z,25.34
2023-05-22T02:34:58.106Z,25.33
2023-05-22T02:35:58.139Z,25.34
2023-05-22T02:36:58.177Z,25.33
2023-05-22T02:37:58.229Z,25.34
2023-05-22T02:38:58.286Z,25.36
2023-05-22T02:39:58.372Z,25.34
2023-05-22T02:40:58.397Z,25.34
2023-05-22T02:41:58.500Z,25.34
2023-05-22T02:42:58.525Z,25.33
2023-05-22T02:43:58.577Z,25.33
2023-05-22T02:44:58.632Z,25.36
2023-05-22T02:45:58.693Z,25.36
2023-05-22T02:46:58.839Z,25.36
2023-05-22T02:47:58.867Z,25.34
2023-05-22T02:48:58.838Z,25.34
2023-05-22T02:49:58.903Z,25.34
2023-05-22T02:50:58.953Z,25.32
2023-05-22T02:51:59.005Z,25.33
2023-05-22T02:52:59.082Z,25.34
2023-05-22T02:53:59.111Z,25.32
2023-05-22T02:54:59.167Z,25.33
2023-05-22T02:55:59.222Z,25.36
2023-05-22T02:56:59.290Z,25.33
2023-05-22T02:57:59.336Z,25.33
2023-05-22T02:58:59.395Z,25.34
2023-05-22T02:59:59.469Z,25.34
2023-05-22T03:00:59.528Z,25.34
2023-05-22T03:01:59.605Z,25.34
2023-05-22T03:02:59.696Z,25.34
2023-05-22T03:03:59.689Z,25.36
2023-05-22T03:04:59.763Z,25.36
2023-05-22T03:05:59.793Z,25.34
2023-05-22T03:06:59.882Z,25.36
2023-05-22T03:07:59.910Z,25.37
2023-05-22T03:08:59.961Z,25.36
2023-05-22T03:10:00.022Z,25.36
2023-05-22T03:11:00.064Z,25.34
2023-05-22T03:12:00.122Z,25.34
2023-05-22T03:13:00.171Z,25.34
2023-05-22T03:14:00.230Z,25.34
2023-05-22T03:15:00.298Z,25.32
2023-05-22T03:16:00.424Z,25.36
2023-05-22T03:17:00.429Z,25.33
2023-05-22T03:18:00.469Z,25.34
2023-05-22T03:19:00.560Z,25.33
2023-05-22T03:20:00.562Z,25.33
2023-05-22T03:21:00.567Z,25.33
2023-05-22T03:22:00.616Z,25.30
2023-05-22T03:23:00.682Z,25.32
2023-05-22T03:24:00.725Z,25.32
2023-05-22T03:25:00.772Z,25.32
2023-05-22T03:26:00.798Z,25.30
2023-05-22T03:27:00.847Z,25.29
2023-05-22T03:28:00.909Z,25.32
2023-05-22T03:29:01.029Z,25.32
2023-05-22T03:30:01.022Z,25.32
2023-05-22T03:31:01.062Z,25.32
2023-05-22T03:32:01.121Z,25.32
2023-05-22T03:33:01.203Z,25.32
2023-05-22T03:34:01.425Z,25.32
2023-05-22T03:35:01.274Z,25.30
2023-05-22T03:36:01.360Z,25.33
2023-05-22T03:37:01.413Z,25.33
2023-05-22T03:38:01.436Z,25.32
2023-05-22T03:39:01.508Z,25.30
2023-05-22T03:40:01.547Z,25.32
2023-05-22T03:41:01.631Z,25.32
2023-05-22T03:42:01.678Z,25.32
2023-05-22T03:43:01.713Z,25.34
2023-05-22T03:44:01.782Z,25.34
2023-05-22T03:45:01.826Z,25.30
2023-05-22T03:46:01.886Z,25.34
2023-05-22T03:47:01.933Z,25.32
2023-05-22T03:48:02.031Z,25.32
2023-05-22T03:49:02.046Z,25.34
2023-05-22T03:50:02.108Z,25.33
2023-05-22T03:51:02.174Z,25.33
2023-05-22T03:52:02.194Z,25.34
2023-05-22T03:53:02.268Z,25.34
2023-05-22T03:54:02.328Z,25.33
2023-05-22T03:55:02.378Z,25.32
2023-05-22T03:56:02.423Z,25.32
2023-05-22T03:57:02.486Z,25.30
2023-05-22T03:58:02.524Z,25.32
2023-05-22T03:59:02.581Z,25.34
2023-05-22T04:00:02.627Z,25.30
2023-05-22T04:01:02.693Z,25.30
2023-05-22T04:02:02.773Z,25.32
2023-05-22T04:03:02.899Z,25.30
2023-05-22T04:04:02.850Z,25.30
2023-05-22T04:05:02.970Z,25.32
2023-05-22T04:06:02.979Z,25.32
2023-05-22T04:07:03.033Z,25.32
2023-05-22T04:08:03.061Z,25.30
2023-05-22T04:09:03.146Z,25.28
2023-05-22T04:10:03.202Z,25.29
2023-05-22T04:11:03.252Z,25.32
2023-05-22T04:12:03.296Z,25.30
2023-05-22T04:13:03.348Z,25.28
2023-05-22T04:14:03.390Z,25.29
2023-05-22T04:15:03.450Z,25.30
2023-05-22T04:16:03.565Z,25.29
2023-05-22T04:17:03.543Z,25.29
2023-05-22T04:18:03.664Z,25.30
2023-05-22T04:19:03.739Z,25.29
2023-05-22T04:20:03.711Z,25.29
2023-05-22T04:21:03.761Z,25.29
2023-05-22T04:22:03.823Z,25.29
2023-05-22T04:23:03.856Z,25.30
2023-05-22T04:24:03.930Z,25.30
2023-05-22T04:25:03.982Z,25.28
2023-05-22T04:26:04.029Z,25.29
2023-05-22T04:27:04.074Z,25.29
2023-05-22T04:28:04.237Z,25.28
2023-05-22T04:29:04.151Z,25.32
2023-05-22T04:30:04.228Z,25.29
2023-05-22T04:31:04.291Z,25.30
2023-05-22T04:32:04.327Z,25.30
2023-05-22T04:33:04.421Z,25.30
2023-05-22T04:34:04.422Z,25.33
2023-05-22T04:35:04.475Z,25.33
2023-05-22T04:36:04.541Z,25.29
2023-05-22T04:37:04.590Z,25.29
2023-05-22T04:38:04.666Z,25.29
2023-05-22T04:39:04.693Z,25.28
2023-05-22T04:40:04.762Z,25.29
2023-05-22T04:41:04.840Z,25.32
2023-05-22T04:42:04.899Z,25.30
2023-05-22T04:43:04.943Z,25.29
2023-05-22T04:44:04.978Z,25.32
2023-05-22T04:45:05.021Z,25.30
2023-05-22T04:46:05.100Z,25.33
2023-05-22T04:47:07.589Z,25.30
2023-05-22T04:48:05.363Z,25.30
2023-05-22T04:49:05.116Z,25.29
2023-05-22T04:50:05.106Z,25.30
2023-05-22T04:51:05.096Z,25.30
2023-05-22T04:52:05.099Z,25.29
2023-05-22T04:53:05.129Z,25.30
2023-05-22T04:54:05.091Z,25.30
2023-05-22T04:55:06.062Z,25.32
2023-05-22T04:56:05.093Z,25.32
2023-05-22T04:57:05.069Z,25.30
2023-05-22T04:58:05.050Z,25.32
2023-05-22T04:59:05.045Z,25.32
2023-05-22T05:00:05.072Z,25.34
2023-05-22T05:01:05.108Z,25.30
2023-05-22T05:02:05.060Z,25.34
2023-05-22T05:03:05.114Z,25.34
2023-05-22T05:04:05.079Z,25.34
2023-05-22T05:05:05.016Z,25.33
2023-05-22T05:06:05.022Z,25.36
2023-05-22T05:07:05.038Z,25.33
2023-05-22T05:08:05.033Z,25.37
2023-05-22T05:09:04.994Z,25.34
2023-05-22T05:10:04.983Z,25.36
2023-05-22T05:11:04.972Z,25.34
2023-05-22T05:12:04.964Z,25.33
2023-05-22T05:13:04.954Z,25.34
2023-05-22T05:14:04.960Z,25.36
2023-05-22T05:15:04.940Z,25.34
2023-05-22T05:16:04.941Z,25.36
2023-05-22T05:17:04.962Z,25.36
2023-05-22T05:18:05.130Z,25.36
2023-05-22T05:19:05.048Z,25.37
2023-05-22T05:20:05.118Z,25.37
2023-05-22T05:21:05.153Z,25.34
2023-05-22T05:22:05.236Z,25.34
2023-05-22T05:23:05.291Z,25.36
2023-05-22T05:24:05.344Z,25.33
2023-05-22T05:25:05.389Z,25.36
2023-05-22T05:26:05.463Z,25.36
2023-05-22T05:27:05.542Z,25.36
2023-05-22T05:28:05.815Z,25.36
2023-05-22T05:29:05.633Z,25.34
2023-05-22T05:30:05.667Z,25.28
2023-05-22T05:31:05.756Z,24.95
2023-05-22T05:32:05.834Z,24.89
2023-05-22T05:33:05.878Z,24.86
2023-05-22T05:34:05.896Z,24.86
2023-05-22T05:35:06.014Z,24.83
2023-05-22T05:36:05.953Z,24.83
2023-05-22T05:37:05.961Z,24.78
2023-05-22T05:38:06.061Z,24.69
2023-05-22T05:39:05.996Z,24.58
2023-05-22T05:40:06.074Z,24.44
2023-05-22T05:41:05.969Z,24.44
2023-05-22T05:42:06.009Z,24.42
2023-05-22T05:43:08.046Z,24.39
2023-05-22T05:44:05.996Z,24.42
2023-05-22T05:45:05.971Z,24.18
2023-05-22T05:46:06.010Z,24.15
2023-05-22T05:47:05.968Z,23.84
2023-05-22T05:48:05.979Z,24.08
2023-05-22T05:49:05.962Z,24.18
2023-05-22T05:50:06.039Z,24.28
2023-05-22T05:51:05.957Z,24.34
2023-05-22T05:52:05.935Z,24.44
2023-05-22T05:53:06.798Z,24.47
2023-05-22T05:54:05.985Z,24.54
2023-05-22T05:55:05.916Z,24.55
2023-05-22T05:56:05.915Z,24.62
2023-05-22T05:57:05.951Z,24.66
2023-05-22T05:58:06.287Z,24.69
2023-05-22T05:59:05.896Z,24.74
2023-05-22T06:00:05.961Z,24.75
2023-05-22T06:01:05.862Z,24.81
2023-05-22T06:02:05.854Z,24.82
2023-05-22T06:03:05.987Z,24.82
2023-05-22T06:04:05.893Z,24.86
2023-05-22T06:05:05.867Z,24.88
2023-05-22T06:06:05.843Z,24.88
2023-05-22T06:07:05.831Z,24.92
2023-05-22T06:08:05.834Z,24.93
2023-05-22T06:09:05.815Z,24.95
2023-05-22T06:10:05.821Z,24.95
2023-05-22T06:11:05.793Z,24.98
2023-05-22T06:12:05.804Z,24.99
2023-05-22T06:13:05.815Z,25.02
2023-05-22T06:14:05.806Z,25.00
2023-05-22T06:15:05.826Z,25.02
2023-05-22T06:16:06.705Z,25.02
2023-05-22T06:17:05.759Z,25.03
2023-05-22T06:18:05.878Z,25.09
2023-05-22T06:19:05.800Z,25.08
2023-05-22T06:20:05.757Z,25.10
2023-05-22T06:21:05.730Z,25.09
2023-05-22T06:22:05.734Z,25.10
2023-05-22T06:23:05.816Z,25.13
2023-05-22T06:24:05.722Z,25.10
2023-05-22T06:25:05.721Z,25.10
2023-05-22T06:26:05.707Z,25.13
2023-05-22T06:27:05.736Z,25.10
2023-05-22T06:28:05.702Z,25.12
2023-05-22T06:29:05.706Z,25.12
2023-05-22T06:30:05.740Z,25.12
2023-05-22T06:31:05.817Z,25.12
2023-05-22T06:32:05.880Z,25.12
2023-05-22T06:33:05.997Z,25.12
2023-05-22T06:34:05.957Z,25.10
2023-05-22T06:35:05.990Z,25.08
2023-05-22T06:36:05.994Z,25.06
2023-05-22T06:37:06.044Z,25.02
2023-05-22T06:38:06.128Z,24.92
2023-05-22T06:39:06.084Z,24.90
2023-05-22T06:40:06.077Z,24.90
2023-05-22T06:41:06.148Z,24.95
2023-05-22T06:42:06.265Z,24.96
2023-05-22T06:43:06.300Z,24.98
2023-05-22T06:44:06.397Z,25.00
2023-05-22T06:45:06.392Z,25.00
2023-05-22T06:46:06.461Z,25.02
2023-05-22T06:47:06.825Z,25.02
2023-05-22T06:48:06.848Z,25.02
2023-05-22T06:49:06.517Z,25.02
2023-05-22T06:50:06.614Z,25.02
2023-05-22T06:51:06.623Z,25.05
2023-05-22T06:52:06.671Z,25.05
2023-05-22T06:53:06.725Z,25.05
2023-05-22T06:54:06.924Z,25.02
2023-05-22T06:55:06.845Z,25.03
2023-05-22T06:56:06.872Z,25.02
2023-05-22T06:57:06.954Z,25.02
2023-05-22T06:58:06.969Z,25.00
2023-05-22T06:59:07.038Z,25.03
2023-05-22T07:00:07.110Z,25.03
2023-05-22T07:01:07.183Z,25.05
2023-05-22T07:02:07.281Z,25.02
2023-05-22T07:03:07.334Z,25.03
2023-05-22T07:04:07.414Z,25.05
2023-05-22T07:05:07.483Z,25.03
2023-05-22T07:06:07.467Z,25.00
2023-05-22T07:07:07.537Z,25.03
2023-05-22T07:08:07.548Z,25.03
2023-05-22T07:09:07.690Z,25.03
2023-05-22T07:10:07.687Z,25.03
2023-05-22T07:11:07.711Z,25.05
2023-05-22T07:12:07.826Z,25.00
2023-05-22T07:13:07.798Z,25.06
2023-05-22T07:14:07.827Z,25.06
2023-05-22T07:15:07.882Z,25.08
2023-05-22T07:16:07.936Z,25.10
2023-05-22T07:17:07.976Z,25.12
2023-05-22T07:18:08.172Z,25.15
2023-05-22T07:19:08.111Z,25.16
2023-05-22T07:20:08.148Z,25.16
2023-05-22T07:21:08.268Z,25.18
2023-05-22T07:22:08.224Z,25.16
2023-05-22T07:23:08.334Z,25.16
2023-05-22T07:24:08.307Z,25.15
2023-05-22T07:25:08.427Z,25.12
2023-05-22T07:26:08.489Z,25.12
2023-05-22T07:27:08.480Z,25.10
2023-05-22T07:28:08.624Z,25.09
2023-05-22T07:29:08.571Z,25.08
2023-05-22T07:30:08.620Z,25.09
2023-05-22T07:31:08.732Z,25.06
2023-05-22T07:32:08.779Z,25.02
2023-05-22T07:33:08.949Z,25.06
2023-05-22T07:34:08.877Z,25.06
2023-05-22T07:35:08.898Z,25.02
2023-05-22T07:36:08.944Z,25.02
2023-05-22T07:37:08.949Z,25.02
2023-05-22T07:38:09.342Z,25.08
2023-05-22T07:39:09.005Z,25.10
2023-05-22T07:40:09.018Z,25.16
2023-05-22T07:41:09.035Z,25.16
2023-05-22T07:42:09.272Z,25.19
2023-05-22T07:43:09.319Z,25.20
2023-05-22T07:44:09.125Z,25.20
2023-05-22T07:45:09.193Z,25.23
2023-05-22T07:46:09.238Z,25.23
2023-05-22T07:47:09.187Z,25.25
2023-05-22T07:48:09.271Z,25.28
2023-05-22T07:49:09.266Z,25.30
2023-05-22T07:50:09.314Z,25.32
2023-05-22T07:51:09.289Z,25.30
2023-05-22T07:52:09.288Z,25.30
2023-05-22T07:53:09.355Z,25.30
2023-05-22T07:54:09.356Z,25.30
2023-05-22T07:55:09.417Z,25.29
2023-05-22T07:56:09.426Z,25.32
2023-05-22T07:57:09.469Z,25.29
2023-05-22T07:58:09.556Z,25.29
2023-05-22T07:59:09.570Z,25.30
2023-05-22T08:00:09.589Z,25.32
2023-05-22T08:01:09.774Z,25.32
2023-05-22T08:02:09.656Z,25.34
2023-05-22T08:03:09.750Z,25.32
2023-05-22T08:04:09.802Z,25.33
2023-05-22T08:05:09.823Z,25.33
2023-05-22T08:06:10.063Z,25.33
2023-05-22T08:07:09.760Z,25.34
2023-05-22T08:08:09.797Z,25.33
2023-05-22T08:09:09.843Z,25.34
2023-05-22T08:10:09.891Z,25.30
2023-05-22T08:11:10.105Z,25.33
2023-05-22T08:12:09.921Z,25.32
2023-05-22T08:13:09.940Z,25.33
2023-05-22T08:14:10.074Z,25.30
2023-05-22T08:15:09.992Z,25.29
2023-05-22T08:16:10.028Z,25.29
2023-05-22T08:17:10.071Z,25.26
2023-05-22T08:18:10.146Z,25.26
2023-05-22T08:19:10.229Z,25.25
2023-05-22T08:20:10.329Z,25.25
2023-05-22T08:21:10.236Z,25.22
2023-05-22T08:22:10.245Z,25.20
2023-05-22T08:23:10.264Z,25.19
2023-05-22T08:24:10.296Z,25.19
2023-05-22T08:25:10.339Z,25.16
2023-05-22T08:26:10.393Z,25.16
2023-05-22T08:27:10.382Z,25.22
2023-05-22T08:28:10.855Z,25.28
2023-05-22T08:29:10.853Z,25.28
2023-05-22T08:30:10.450Z,25.34
2023-05-22T08:31:10.448Z,25.37
2023-05-22T08:32:10.451Z,25.42
2023-05-22T08:33:10.462Z,25.42
2023-05-22T08:34:10.422Z,25.44
2023-05-22T08:35:10.412Z,25.44
2023-05-22T08:36:10.422Z,25.44
2023-05-22T08:37:10.460Z,25.44
2023-05-22T08:38:10.848Z,25.44
2023-05-22T08:39:10.880Z,25.43
2023-05-22T08:40:10.521Z,25.37
2023-05-22T08:41:10.583Z,25.26
2023-05-22T08:42:10.586Z,25.32
2023-05-22T08:43:10.596Z,25.34
2023-05-22T08:44:10.574Z,25.37
2023-05-22T08:45:10.613Z,25.42
2023-05-22T08:46:10.691Z,25.46
2023-05-22T08:47:10.703Z,25.46
2023-05-22T08:48:10.867Z,25.46
2023-05-22T08:49:10.852Z,25.50
2023-05-22T08:50:10.616Z,25.50
2023-05-22T08:51:10.670Z,25.50
2023-05-22T08:52:10.712Z,25.50
2023-05-22T08:53:10.763Z,25.47
2023-05-22T08:54:10.853Z,25.50
2023-05-22T08:55:10.865Z,25.49
2023-05-22T08:56:10.917Z,25.49
2023-05-22T08:57:11.004Z,25.50
2023-05-22T08:58:11.045Z,25.50
2023-05-22T08:59:11.079Z,25.50
2023-05-22T09:00:11.108Z,25.52
2023-05-22T09:01:11.221Z,25.52
2023-05-22T09:02:11.245Z,25.52
2023-05-22T09:03:11.327Z,25.50
2023-05-22T09:04:11.458Z,25.52
2023-05-22T09:05:11.386Z,25.52
2023-05-22T09:06:11.488Z,25.53
2023-05-22T09:07:11.460Z,25.56
2023-05-22T09:08:19.752Z,25.52
2023-05-22T09:09:12.519Z,25.50
2023-05-22T09:10:11.510Z,25.52
2023-05-22T09:11:11.492Z,25.50
2023-05-22T09:12:11.514Z,25.52
2023-05-22T09:13:11.538Z,25.50
2023-05-22T09:14:11.480Z,25.52
2023-05-22T09:15:11.475Z,25.49
2023-05-22T09:16:11.648Z,25.53
2023-05-22T09:17:11.655Z,25.50
2023-05-22T09:18:11.501Z,25.54
2023-05-22T09:19:11.509Z,25.54
2023-05-22T09:20:11.545Z,25.53
2023-05-22T09:21:25.688Z,25.56
2023-05-22T09:22:12.549Z,25.57
2023-05-22T09:23:11.560Z,25.56
2023-05-22T09:24:11.551Z,25.54
2023-05-22T09:25:11.567Z,25.53
2023-05-22T09:26:11.540Z,25.53
2023-05-22T09:27:11.550Z,25.52
2023-05-22T09:28:11.528Z,25.47
2023-05-22T09:29:11.535Z,25.47
2023-05-22T09:30:11.501Z,25.44
2023-05-22T09:31:11.522Z,25.47
2023-05-22T09:32:11.543Z,25.47
2023-05-22T09:33:11.887Z,25.46
2023-05-22T09:34:11.651Z,25.43
2023-05-22T09:35:11.713Z,25.42
2023-05-22T09:36:11.740Z,25.43
2023-05-22T09:37:11.771Z,25.47
2023-05-22T09:38:12.444Z,25.53
2023-05-22T09:39:11.816Z,25.53
2023-05-22T09:40:11.818Z,25.50
2023-05-22T09:41:11.824Z,25.54
2023-05-22T09:42:11.857Z,25.57
2023-05-22T09:43:12.450Z,25.62
2023-05-22T09:44:11.908Z,25.62
2023-05-22T09:45:11.936Z,25.63
2023-05-22T09:46:12.004Z,25.64
2023-05-22T09:47:12.016Z,25.64
2023-05-22T09:48:12.094Z,25.64
2023-05-22T09:49:15.714Z,25.67
2023-05-22T09:50:12.124Z,25.63
2023-05-22T09:51:12.055Z,25.63
2023-05-22T09:52:12.057Z,25.64
2023-05-22T09:53:12.032Z,25.63
2023-05-22T09:54:12.055Z,25.63
2023-05-22T09:55:12.025Z,25.62
2023-05-22T09:56:12.010Z,25.62
2023-05-22T09:57:12.006Z,25.62
2023-05-22T09:58:12.060Z,25.62
2023-05-22T09:59:12.002Z,25.62
2023-05-22T10:00:12.009Z,25.62
2023-05-22T10:01:12.011Z,25.63
2023-05-22T10:02:11.992Z,25.63
2023-05-22T10:03:11.984Z,25.64
2023-05-22T10:04:13.032Z,25.64
2023-05-22T10:05:11.959Z,25.63
2023-05-22T10:06:11.973Z,25.63
2023-05-22T10:07:11.970Z,25.66
2023-05-22T10:08:11.954Z,25.64
2023-05-22T10:09:11.926Z,25.62
2023-05-22T10:10:11.950Z,25.60
2023-05-22T10:11:11.963Z,25.60
2023-05-22T10:12:11.905Z,25.60
2023-05-22T10:13:11.890Z,25.62
2023-05-22T10:14:11.898Z,25.62
2023-05-22T10:15:11.901Z,25.63
2023-05-22T10:16:11.975Z,25.64
2023-05-22T10:17:11.863Z,25.66
2023-05-22T10:18:11.906Z,25.62
2023-05-22T10:19:11.912Z,25.67
2023-05-22T10:20:11.859Z,25.66
2023-05-22T10:21:11.878Z,25.69
2023-05-22T10:22:11.988Z,25.69
2023-05-22T10:23:11.939Z,25.69
2023-05-22T10:24:13.319Z,25.72
2023-05-22T10:25:11.983Z,25.72
2023-05-22T10:26:11.999Z,25.69
2023-05-22T10:27:12.035Z,25.72
2023-05-22T10:28:12.064Z,25.72
2023-05-22T10:29:12.414Z,25.67
2023-05-22T10:30:12.101Z,25.67
2023-05-22T10:31:12.163Z,25.66
2023-05-22T10:32:12.132Z,25.64
2023-05-22T10:33:12.286Z,25.69
2023-05-22T10:34:12.404Z,25.70
2023-05-22T10:35:12.132Z,25.70
2023-05-22T10:36:12.135Z,25.74
2023-05-22T10:37:17.367Z,25.77
2023-05-22T10:38:13.220Z,25.77
2023-05-22T10:39:12.133Z,25.77
2023-05-22T10:40:12.121Z,25.79
2023-05-22T10:41:12.117Z,25.81
2023-05-22T10:42:12.136Z,25.81
2023-05-22T10:43:12.113Z,25.80
2023-05-22T10:44:12.122Z,25.81
2023-05-22T10:45:12.094Z,25.80
2023-05-22T10:46:12.172Z,25.79
2023-05-22T10:47:12.081Z,25.76
2023-05-22T10:48:12.076Z,25.79
2023-05-22T10:49:12.070Z,25.77
2023-05-22T10:50:12.125Z,25.83
2023-05-22T10:51:12.045Z,25.81
2023-05-22T10:52:12.122Z,25.79
2023-05-22T10:53:12.055Z,25.79
2023-05-22T10:54:12.129Z,25.80
2023-05-22T10:55:12.044Z,25.79
2023-05-22T10:56:12.022Z,25.76
2023-05-22T10:57:12.017Z,25.76
2023-05-22T10:58:12.035Z,25.77
2023-05-22T10:59:11.994Z,25.77
2023-05-22T11:00:12.026Z,25.73
2023-05-22T11:01:12.029Z,25.76
2023-05-22T11:02:12.060Z,25.77
2023-05-22T11:03:17.931Z,25.77
2023-05-22T11:04:13.169Z,25.76
2023-05-22T11:05:12.089Z,25.76
2023-05-22T11:06:12.031Z,25.79
2023-05-22T11:07:12.039Z,25.79
2023-05-22T11:08:12.034Z,25.81
2023-05-22T11:09:12.013Z,25.79
2023-05-22T11:10:12.094Z,25.84
2023-05-22T11:11:12.035Z,25.87
2023-05-22T11:12:12.012Z,25.90
2023-05-22T11:13:12.067Z,25.93
2023-05-22T11:14:11.985Z,25.96
2023-05-22T11:15:11.983Z,25.94
2023-05-22T11:16:12.045Z,25.96
2023-05-22T11:17:12.139Z,25.98
2023-05-22T11:19:22.753Z,25.94
2023-05-22T11:20:13.108Z,25.97
2023-05-22T11:21:12.063Z,25.98
2023-05-22T11:22:11.946Z,25.98
2023-05-22T11:23:12.425Z,25.98
2023-05-22T11:24:11.934Z,26.00
2023-05-22T11:25:11.927Z,26.00
2023-05-22T11:26:12.027Z,26.01
2023-05-22T11:27:11.938Z,26.03
2023-05-22T11:28:11.915Z,26.04
2023-05-22T11:29:11.944Z,26.05
2023-05-22T11:30:11.999Z,26.07
2023-05-22T11:31:12.034Z,26.08
2023-05-22T11:32:11.982Z,26.10
2023-05-22T11:33:12.094Z,26.07
2023-05-22T11:34:12.006Z,26.04
2023-05-22T11:35:12.022Z,26.05
2023-05-22T11:36:12.038Z,26.03
2023-05-22T11:37:12.023Z,26.04
2023-05-22T11:38:12.072Z,26.01
2023-05-22T11:39:12.042Z,26.00
2023-05-22T11:40:12.059Z,25.98
2023-05-22T11:41:12.027Z,25.98
2023-05-22T11:42:12.126Z,25.98
2023-05-22T11:43:12.068Z,25.98
2023-05-22T11:44:12.033Z,25.97
2023-05-22T11:45:12.110Z,25.97
2023-05-22T11:46:12.125Z,25.97
2023-05-22T11:47:12.046Z,25.96
2023-05-22T11:48:14.646Z,25.94
2023-05-22T11:49:12.040Z,25.97
2023-05-22T11:50:12.060Z,26.00
2023-05-22T11:51:12.053Z,25.97
2023-05-22T11:52:12.025Z,26.00
2023-05-22T11:53:12.037Z,25.98
2023-05-22T11:54:12.010Z,25.98
2023-05-22T11:55:12.008Z,26.00
2023-05-22T11:56:12.001Z,25.98
2023-05-22T11:57:11.989Z,25.98
2023-05-22T11:58:12.076Z,25.98
2023-05-22T11:59:11.975Z,25.98
2023-05-22T12:00:12.089Z,25.96
2023-05-22T12:01:11.993Z,25.96
2023-05-22T12:02:11.956Z,25.97
2023-05-22T12:03:12.117Z,25.96
2023-05-22T12:04:12.081Z,25.97
2023-05-22T12:05:11.972Z,25.96
2023-05-22T12:06:12.655Z,25.97
2023-05-22T12:07:11.924Z,25.93
2023-05-22T12:08:11.915Z,25.94
2023-05-22T12:09:11.917Z,25.96
2023-05-22T12:10:11.892Z,25.94
2023-05-22T12:11:11.921Z,25.96
2023-05-22T12:12:11.889Z,25.96
2023-05-22T12:13:11.885Z,25.96
2023-05-22T12:14:12.039Z,25.96
2023-05-22T12:15:11.869Z,25.96
2023-05-22T12:16:12.012Z,25.97
2023-05-22T12:17:11.850Z,25.96
2023-05-22T12:18:11.897Z,25.94
2023-05-22T12:19:11.864Z,25.94
2023-05-22T12:20:11.836Z,25.96
2023-05-22T12:21:11.823Z,25.97
2023-05-22T12:22:11.828Z,25.94
2023-05-22T12:23:11.817Z,25.94
2023-05-22T12:24:11.823Z,25.96
2023-05-22T12:25:11.873Z,25.86
2023-05-22T12:26:11.817Z,25.83
2023-05-22T12:27:11.804Z,25.63
2023-05-22T12:28:11.794Z,25.54
2023-05-22T12:29:11.772Z,25.53
2023-05-22T12:30:11.853Z,25.53
2023-05-22T12:31:11.774Z,25.53
2023-05-22T12:32:11.814Z,25.62
2023-05-22T12:33:11.841Z,25.60
2023-05-22T12:34:11.764Z,25.64
2023-05-22T12:35:11.737Z,25.72
2023-05-22T12:36:11.774Z,25.81
2023-05-22T12:37:11.741Z,25.88
2023-05-22T12:38:11.730Z,25.90
2023-05-22T12:39:11.736Z,25.91
2023-05-22T12:40:11.751Z,25.97
2023-05-22T12:41:11.709Z,26.00
2023-05-22T12:42:11.699Z,26.00
2023-05-22T12:43:11.714Z,26.03
2023-05-22T12:44:11.731Z,25.98
2023-05-22T12:45:11.759Z,26.01
2023-05-22T12:46:11.921Z,26.04
2023-05-22T12:47:11.860Z,26.01
2023-05-22T12:48:12.009Z,26.00
2023-05-22T12:49:12.009Z,26.00
2023-05-22T12:50:12.119Z,26.01
2023-05-22T12:51:12.088Z,26.01
2023-05-22T12:52:12.136Z,26.00
2023-05-22T12:53:12.173Z,25.97
2023-05-22T12:54:12.228Z,26.01